createdAt,value
2018-05-15T00:02:19.276Z,18.60
2018-05-15T00:04:46.774Z,18.60
2018-05-15T00:07:14.273Z,18.60
2018-05-15T00:09:42.557Z,18.60
2018-05-15T00:12:10.845Z,18.50
2018-05-15T00:14:40.771Z,18.50
2018-05-15T00:17:09.498Z,18.50
2018-05-15T00:19:37.794Z,18.40
2018-05-15T00:22:06.061Z,18.40
2018-05-15T00:24:33.677Z,18.40
2018-05-15T00:27:01.178Z,18.40
2018-05-15T00:29:29.473Z,18.30
2018-05-15T00:31:56.973Z,18.30
2018-05-15T00:34:24.538Z,18.30
2018-05-15T00:36:52.044Z,18.30
2018-05-15T00:39:20.330Z,18.30
2018-05-15T00:41:47.825Z,18.30
2018-05-15T00:44:15.357Z,18.30
2018-05-15T00:46:42.857Z,18.30
2018-05-15T00:49:11.150Z,18.20
2018-05-15T00:51:39.428Z,18.20
2018-05-15T00:54:06.925Z,18.20
2018-05-15T00:56:34.430Z,18.20
2018-05-15T00:59:01.975Z,18.10
2018-05-15T01:01:30.272Z,18.10
2018-05-15T01:03:57.764Z,18.10
2018-05-15T01:06:25.264Z,18.10
2018-05-15T01:08:52.813Z,18.00
2018-05-15T01:11:21.079Z,18.00
2018-05-15T01:13:49.330Z,17.90
2018-05-15T01:16:16.853Z,17.90
2018-05-15T01:18:44.349Z,17.90
2018-05-15T01:21:12.644Z,17.80
2018-05-15T01:23:41.142Z,17.80
2018-05-15T01:26:09.027Z,17.70
2018-05-15T01:28:37.324Z,17.70
2018-05-15T01:31:05.585Z,17.60
2018-05-15T01:33:33.932Z,17.50
2018-05-15T01:36:01.455Z,17.50
2018-05-15T01:38:29.012Z,17.40
2018-05-15T01:40:57.302Z,17.40
2018-05-15T01:43:24.810Z,17.30
2018-05-15T01:45:52.339Z,17.40
2018-05-15T01:48:19.833Z,17.30
2018-05-15T01:50:48.125Z,17.30
2018-05-15T01:53:15.616Z,17.30
2018-05-15T01:55:43.964Z,17.20
2018-05-15T01:58:12.548Z,17.20
2018-05-15T02:00:40.821Z,17.20
2018-05-15T02:03:08.349Z,17.20
2018-05-15T02:05:36.497Z,17.20
2018-05-15T02:08:04.021Z,17.20
2018-05-15T02:10:32.353Z,17.20
2018-05-15T02:12:59.849Z,17.20
2018-05-15T02:15:28.162Z,17.10
2018-05-15T02:17:56.413Z,17.00
2018-05-15T02:20:24.664Z,17.00
2018-05-15T02:22:52.965Z,17.00
2018-05-15T02:25:20.449Z,17.00
2018-05-15T02:27:47.965Z,16.90
2018-05-15T02:30:16.226Z,16.90
2018-05-15T02:32:43.757Z,16.90
2018-05-15T02:35:11.606Z,16.90
2018-05-15T02:37:40.183Z,16.90
2018-05-15T02:40:08.458Z,16.80
2018-05-15T02:42:35.953Z,16.80
2018-05-15T02:45:03.496Z,16.80
2018-05-15T02:47:31.749Z,16.80
2018-05-15T02:50:00.039Z,16.80
2018-05-15T02:52:27.529Z,16.80
2018-05-15T02:54:55.087Z,16.80
2018-05-15T02:57:22.633Z,16.70
2018-05-15T02:59:50.908Z,16.70
2018-05-15T03:02:18.441Z,16.70
2018-05-15T03:04:45.984Z,16.70
2018-05-15T03:07:13.529Z,16.60
2018-05-15T03:09:42.125Z,16.60
2018-05-15T03:12:11.278Z,16.60
2018-05-15T03:14:38.771Z,16.60
2018-05-15T03:17:06.287Z,16.50
2018-05-15T03:19:34.581Z,16.60
2018-05-15T03:22:02.121Z,16.50
2018-05-15T03:24:29.616Z,16.40
2018-05-15T03:26:57.153Z,16.40
2018-05-15T03:29:25.459Z,16.30
2018-05-15T03:31:52.969Z,16.30
2018-05-15T03:34:20.472Z,16.30
2018-05-15T03:36:47.964Z,16.30
2018-05-15T03:39:16.244Z,16.30
2018-05-15T03:41:43.737Z,16.30
2018-05-15T03:44:11.817Z,16.30
2018-05-15T03:46:40.238Z,16.20
2018-05-15T03:49:08.507Z,16.20
2018-05-15T03:51:36.043Z,16.20
2018-05-15T03:54:04.317Z,16.10
2018-05-15T03:56:31.845Z,16.10
2018-05-15T03:58:59.341Z,16.10
2018-05-15T04:01:39.850Z,16.10
2018-05-15T04:04:19.062Z,16.10
2018-05-15T04:06:58.353Z,16.10
2018-05-15T04:09:26.620Z,16.10
2018-05-15T04:11:54.142Z,16.10
2018-05-15T04:14:21.641Z,16.10
2018-05-15T04:16:49.195Z,16.00
2018-05-15T04:19:17.500Z,16.00
2018-05-15T04:21:45.042Z,16.00
2018-05-15T04:24:12.866Z,16.00
2018-05-15T04:26:41.359Z,16.00
2018-05-15T04:29:10.508Z,15.90
2018-05-15T04:31:38.081Z,15.90
2018-05-15T04:34:05.579Z,15.80
2018-05-15T04:36:33.100Z,15.90
2018-05-15T04:39:00.990Z,16.00
2018-05-15T04:41:29.372Z,16.00
2018-05-15T04:43:57.698Z,16.00
2018-05-15T04:46:26.030Z,16.00
2018-05-15T04:48:53.557Z,15.90
2018-05-15T04:51:21.854Z,15.90
2018-05-15T04:53:49.396Z,15.90
2018-05-15T04:56:16.907Z,16.00
2018-05-15T04:58:45.165Z,16.00
2018-05-15T05:01:13.449Z,16.00
2018-05-15T05:03:42.547Z,16.00
2018-05-15T05:06:11.088Z,16.00
2018-05-15T05:08:38.580Z,16.00
2018-05-15T05:11:06.898Z,16.00
2018-05-15T05:13:34.408Z,15.90
2018-05-15T05:16:01.941Z,16.10
2018-05-15T05:18:29.438Z,16.00
2018-05-15T05:20:58.676Z,16.00
2018-05-15T05:23:26.212Z,16.00
2018-05-15T05:25:53.745Z,16.10
2018-05-15T05:28:21.289Z,16.10
2018-05-15T05:30:49.560Z,16.10
2018-05-15T05:33:17.111Z,16.10
2018-05-15T05:35:45.346Z,16.20
2018-05-15T05:38:12.880Z,16.20
2018-05-15T05:40:42.356Z,16.40
2018-05-15T05:43:11.476Z,16.40
2018-05-15T05:45:40.474Z,16.30
2018-05-15T05:48:07.970Z,16.30
2018-05-15T05:50:36.262Z,16.40
2018-05-15T05:53:03.760Z,16.40
2018-05-15T05:55:31.285Z,16.40
2018-05-15T05:57:58.780Z,16.60
2018-05-15T06:00:27.079Z,16.60
2018-05-15T06:02:54.629Z,16.60
2018-05-15T06:05:22.959Z,16.70
2018-05-15T06:07:51.218Z,16.70
2018-05-15T06:10:19.496Z,16.90
2018-05-15T06:12:47.761Z,16.90
2018-05-15T06:15:16.064Z,16.90
2018-05-15T06:17:43.569Z,16.90
2018-05-15T06:20:12.280Z,16.80
2018-05-15T06:22:41.824Z,16.80
2018-05-15T06:25:09.321Z,16.80
2018-05-15T06:27:37.634Z,17.10
2018-05-15T06:30:05.915Z,17.20
2018-05-15T06:32:34.167Z,17.30
2018-05-15T06:35:01.669Z,17.30
2018-05-15T06:37:29.200Z,17.30
2018-05-15T06:39:57.496Z,17.30
2018-05-15T06:42:24.993Z,17.30
2018-05-15T06:44:52.606Z,17.40
2018-05-15T06:47:20.062Z,17.40
2018-05-15T06:49:48.316Z,17.50
2018-05-15T06:52:16.611Z,17.60
2018-05-15T06:54:44.135Z,17.60
2018-05-15T06:57:12.350Z,17.60
2018-05-15T06:59:41.581Z,17.80
2018-05-15T07:02:10.238Z,17.90
2018-05-15T07:04:38.529Z,18.00
2018-05-15T07:07:06.808Z,18.20
2018-05-15T07:09:35.066Z,18.30
2018-05-15T07:12:02.609Z,18.30
2018-05-15T07:14:30.900Z,18.20
2018-05-15T07:16:58.396Z,18.20
2018-05-15T07:19:26.745Z,18.20
2018-05-15T07:21:54.204Z,18.20
2018-05-15T07:24:22.497Z,18.30
2018-05-15T07:26:50.867Z,18.40
2018-05-15T07:29:19.074Z,18.60
2018-05-15T07:31:46.592Z,18.60
2018-05-15T07:34:14.072Z,18.60
2018-05-15T07:36:42.516Z,18.60
2018-05-15T07:39:11.150Z,18.80
2018-05-15T07:41:38.679Z,18.80
2018-05-15T07:44:06.208Z,19.10
2018-05-15T07:46:33.707Z,19.10
2018-05-15T07:49:02.146Z,19.30
2018-05-15T07:51:30.400Z,19.50
2018-05-15T07:53:57.925Z,19.40
2018-05-15T07:56:25.418Z,19.60
2018-05-15T07:58:52.919Z,19.70
2018-05-15T08:01:21.210Z,19.60
2018-05-15T08:03:48.713Z,19.60
2018-05-15T08:06:16.246Z,19.80
2018-05-15T08:08:43.757Z,19.90
2018-05-15T08:11:12.372Z,20.20
2018-05-15T08:13:41.113Z,20.10
2018-05-15T08:16:08.637Z,20.20
2018-05-15T08:18:36.128Z,20.20
2018-05-15T08:21:04.429Z,20.30
2018-05-15T08:23:31.925Z,20.30
2018-05-15T08:25:59.440Z,20.40
2018-05-15T08:28:26.972Z,20.50
2018-05-15T08:30:55.282Z,20.80
2018-05-15T08:33:23.529Z,20.90
2018-05-15T08:35:51.997Z,20.90
2018-05-15T08:38:19.516Z,21.00
2018-05-15T08:40:47.824Z,21.40
2018-05-15T08:43:15.327Z,21.40
2018-05-15T08:45:42.861Z,21.40
2018-05-15T08:48:11.182Z,21.40
2018-05-15T08:50:39.485Z,21.60
2018-05-15T08:53:07.068Z,21.60
2018-05-15T08:55:34.560Z,21.80
2018-05-15T08:58:02.099Z,21.90
2018-05-15T09:00:31.308Z,22.00
2018-05-15T09:02:59.592Z,22.10
2018-05-15T09:05:27.125Z,22.10
2018-05-15T09:07:54.620Z,22.20
2018-05-15T09:10:22.934Z,22.40
2018-05-15T09:12:52.225Z,22.50
2018-05-15T09:15:20.487Z,22.50
2018-05-15T09:17:48.032Z,22.50
2018-05-15T09:20:16.296Z,22.60
2018-05-15T09:22:43.824Z,22.60
2018-05-15T09:25:12.149Z,22.60
2018-05-15T09:27:40.405Z,22.60
2018-05-15T09:30:08.670Z,22.60
2018-05-15T09:32:36.198Z,22.60
2018-05-15T09:35:03.704Z,22.70
2018-05-15T09:37:31.241Z,22.70
2018-05-15T09:39:59.553Z,22.90
2018-05-15T09:42:27.065Z,22.90
2018-05-15T09:44:54.561Z,22.90
2018-05-15T09:47:22.089Z,23.00
2018-05-15T09:49:50.343Z,23.20
2018-05-15T09:52:17.883Z,23.20
2018-05-15T09:54:45.387Z,23.40
2018-05-15T09:57:13.728Z,23.40
2018-05-15T09:59:42.625Z,23.50
2018-05-15T10:02:10.876Z,23.50
2018-05-15T10:04:39.101Z,23.50
2018-05-15T10:07:06.589Z,23.50
2018-05-15T10:09:34.880Z,23.60
2018-05-15T10:12:02.383Z,23.60
2018-05-15T10:14:30.675Z,23.80
2018-05-15T10:16:58.165Z,23.70
2018-05-15T10:19:26.439Z,23.80
2018-05-15T10:21:53.951Z,23.80
2018-05-15T10:24:21.454Z,24.00
2018-05-15T10:26:49.009Z,24.10
2018-05-15T10:29:17.273Z,24.20
2018-05-15T10:31:44.765Z,24.10
2018-05-15T10:34:13.058Z,24.20
2018-05-15T10:36:42.701Z,24.40
2018-05-15T10:39:12.325Z,24.40
2018-05-15T10:41:39.838Z,24.30
2018-05-15T10:44:07.370Z,24.30
2018-05-15T10:46:34.856Z,24.30
2018-05-15T10:49:03.188Z,24.40
2018-05-15T10:51:31.592Z,24.50
2018-05-15T10:53:59.012Z,24.50
2018-05-15T10:56:26.512Z,24.50
2018-05-15T10:58:54.027Z,24.60
2018-05-15T11:01:22.277Z,24.50
2018-05-15T11:03:50.563Z,24.50
2018-05-15T11:06:18.873Z,24.60
2018-05-15T11:08:46.364Z,24.60
2018-05-15T11:11:14.616Z,24.80
2018-05-15T11:13:42.115Z,24.80
2018-05-15T11:16:10.223Z,25.00
2018-05-15T11:18:44.541Z,25.00
2018-05-15T11:21:24.392Z,24.80
2018-05-15T11:24:18.613Z,24.80
2018-05-15T11:26:46.118Z,24.70
2018-05-15T11:29:14.417Z,24.70
2018-05-15T11:31:42.569Z,24.70
2018-05-15T11:34:10.959Z,24.60
2018-05-15T11:36:38.452Z,24.60
2018-05-15T11:39:06.706Z,24.90
2018-05-15T11:41:34.251Z,24.80
2018-05-15T11:44:01.765Z,25.10
2018-05-15T11:46:29.257Z,25.30
2018-05-15T11:48:57.466Z,25.40
2018-05-15T11:51:26.062Z,25.50
2018-05-15T11:53:52.681Z,25.50
2018-05-15T11:56:20.159Z,25.50
2018-05-15T11:58:47.656Z,25.70
2018-05-15T12:01:15.949Z,25.80
2018-05-15T12:03:44.436Z,25.80
2018-05-15T12:06:12.236Z,25.80
2018-05-15T12:08:40.326Z,25.80
2018-05-15T12:11:08.581Z,25.90
2018-05-15T12:13:36.101Z,25.90
2018-05-15T12:16:03.609Z,25.80
2018-05-15T12:18:32.010Z,25.90
2018-05-15T12:21:00.188Z,25.90
2018-05-15T12:23:28.490Z,25.90
2018-05-15T12:25:56.031Z,25.90
2018-05-15T12:28:24.159Z,25.70
2018-05-15T12:30:52.503Z,25.50
2018-05-15T12:33:20.760Z,25.40
2018-05-15T12:35:48.308Z,25.40
2018-05-15T12:38:15.815Z,25.50
2018-05-15T12:40:44.116Z,25.50
2018-05-15T12:43:12.682Z,25.60
2018-05-15T12:45:41.111Z,25.50
2018-05-15T12:48:08.654Z,25.60
2018-05-15T12:50:36.890Z,25.70
2018-05-15T12:53:05.185Z,25.80
2018-05-15T12:55:32.676Z,25.80
2018-05-15T12:58:01.070Z,25.50
2018-05-15T13:00:29.252Z,25.60
2018-05-15T13:02:56.776Z,25.60
2018-05-15T13:05:24.329Z,25.70
2018-05-15T13:07:53.242Z,25.60
2018-05-15T13:10:21.504Z,25.80
2018-05-15T13:12:49.016Z,25.80
2018-05-15T13:15:16.537Z,25.70
2018-05-15T13:17:44.801Z,25.70
2018-05-15T13:20:13.926Z,25.70
2018-05-15T13:22:42.319Z,25.60
2018-05-15T13:25:09.845Z,25.70
2018-05-15T13:27:37.522Z,25.80
2018-05-15T13:30:05.798Z,26.10
2018-05-15T13:32:34.211Z,26.30
2018-05-15T13:35:01.817Z,26.20
2018-05-15T13:37:29.359Z,26.40
2018-05-15T13:39:57.641Z,26.30
2018-05-15T13:42:25.158Z,26.30
2018-05-15T13:44:52.686Z,26.50
2018-05-15T13:47:20.214Z,26.70
2018-05-15T13:49:48.473Z,26.60
2018-05-15T13:52:16.774Z,26.50
2018-05-15T13:54:45.093Z,26.40
2018-05-15T13:57:13.452Z,26.30
2018-05-15T13:59:43.441Z,26.30
2018-05-15T14:02:11.322Z,26.30
2018-05-15T14:04:38.824Z,26.50
2018-05-15T14:07:06.310Z,26.60
2018-05-15T14:09:34.622Z,26.50
2018-05-15T14:12:02.158Z,26.50
2018-05-15T14:14:31.632Z,26.50
2018-05-15T14:16:59.149Z,26.60
2018-05-15T14:19:27.450Z,26.40
2018-05-15T14:21:55.005Z,26.40
2018-05-15T14:24:22.488Z,26.50
2018-05-15T14:26:50.114Z,26.50
2018-05-15T14:29:18.396Z,26.50
2018-05-15T14:31:45.924Z,26.50
2018-05-15T14:34:14.881Z,26.50
2018-05-15T14:36:42.920Z,26.50
2018-05-15T14:39:12.924Z,26.40
2018-05-15T14:41:52.318Z,26.40
2018-05-15T14:44:20.659Z,26.50
2018-05-15T14:46:48.261Z,26.50
2018-05-15T14:49:16.742Z,26.40
2018-05-15T14:51:44.944Z,26.40
2018-05-15T14:54:13.057Z,26.50
2018-05-15T14:56:40.777Z,26.50
2018-05-15T14:59:09.415Z,26.60
2018-05-15T15:01:38.013Z,26.10
2018-05-15T15:04:05.613Z,26.10
2018-05-15T15:06:33.314Z,26.10
2018-05-15T15:09:01.042Z,26.10
2018-05-15T15:11:29.326Z,26.20
2018-05-15T15:13:57.803Z,26.10
2018-05-15T15:16:25.329Z,26.10
2018-05-15T15:18:52.820Z,26.00
2018-05-15T15:21:21.136Z,26.00
2018-05-15T15:23:49.392Z,25.90
2018-05-15T15:26:17.685Z,26.00
2018-05-15T15:28:45.952Z,26.10
2018-05-15T15:31:14.539Z,26.10
2018-05-15T15:33:42.063Z,26.10
2018-05-15T15:36:11.647Z,26.20
2018-05-15T15:38:40.939Z,26.30
2018-05-15T15:41:09.202Z,26.20
2018-05-15T15:43:36.829Z,26.20
2018-05-15T15:46:05.034Z,26.30
2018-05-15T15:48:33.293Z,26.20
2018-05-15T15:51:01.608Z,26.20
2018-05-15T15:53:29.114Z,26.20
2018-05-15T15:55:57.497Z,26.10
2018-05-15T15:58:25.693Z,26.00
2018-05-15T16:00:53.984Z,25.90
2018-05-15T16:03:22.293Z,26.10
2018-05-15T16:05:50.603Z,25.90
2018-05-15T16:08:18.852Z,26.00
2018-05-15T16:10:47.137Z,25.90
2018-05-15T16:13:14.630Z,25.90
2018-05-15T16:15:43.004Z,25.60
2018-05-15T16:18:12.008Z,25.60
2018-05-15T16:20:41.748Z,25.60
2018-05-15T16:23:09.298Z,25.50
2018-05-15T16:25:37.581Z,25.60
2018-05-15T16:28:06.750Z,25.50
2018-05-15T16:30:35.803Z,25.40
2018-05-15T16:33:03.509Z,25.40
2018-05-15T16:35:31.077Z,25.40
2018-05-15T16:37:59.338Z,25.30
2018-05-15T16:40:27.661Z,25.30
2018-05-15T16:42:55.925Z,25.20
2018-05-15T16:45:23.439Z,25.20
2018-05-15T16:47:50.968Z,25.20
2018-05-15T16:50:19.280Z,25.20
2018-05-15T16:52:46.815Z,25.20
2018-05-15T16:55:14.595Z,25.30
2018-05-15T16:57:42.213Z,25.30
2018-05-15T17:00:11.461Z,25.40
2018-05-15T17:02:39.129Z,25.30
2018-05-15T17:05:07.748Z,24.90
2018-05-15T17:07:35.658Z,24.90
2018-05-15T17:10:03.954Z,24.80
2018-05-15T17:12:32.304Z,24.70
2018-05-15T17:15:00.663Z,24.60
2018-05-15T17:17:28.208Z,24.60
2018-05-15T17:19:56.492Z,24.40
2018-05-15T17:22:24.993Z,24.40
2018-05-15T17:24:53.331Z,24.50
2018-05-15T17:27:20.820Z,24.50
2018-05-15T17:29:50.317Z,24.40
2018-05-15T17:32:18.826Z,24.40
2018-05-15T17:34:47.274Z,24.30
2018-05-15T17:37:14.784Z,24.40
2018-05-15T17:39:43.140Z,24.30
2018-05-15T17:42:11.461Z,24.30
2018-05-15T17:44:40.480Z,24.30
2018-05-15T17:47:08.748Z,24.30
2018-05-15T17:49:37.035Z,24.20
2018-05-15T17:52:05.313Z,24.30
2018-05-15T17:54:32.832Z,24.20
2018-05-15T17:57:01.192Z,24.00
2018-05-15T17:59:29.603Z,24.00
2018-05-15T18:01:57.924Z,24.00
2018-05-15T18:04:26.303Z,24.00
2018-05-15T18:06:54.619Z,23.90
2018-05-15T18:09:22.881Z,23.80
2018-05-15T18:11:50.533Z,23.80
2018-05-15T18:14:20.090Z,23.70
2018-05-15T18:16:49.408Z,23.80
2018-05-15T18:19:18.132Z,23.70
2018-05-15T18:21:46.627Z,23.60
2018-05-15T18:24:14.128Z,23.60
2018-05-15T18:26:42.999Z,23.40
2018-05-15T18:29:11.936Z,23.40
2018-05-15T18:31:40.699Z,23.30
2018-05-15T18:34:08.209Z,23.30
2018-05-15T18:36:36.466Z,23.20
2018-05-15T18:39:05.401Z,23.10
2018-05-15T18:41:33.710Z,23.10
2018-05-15T18:44:02.041Z,23.00
2018-05-15T18:46:30.362Z,22.90
2018-05-15T18:48:57.884Z,22.90
2018-05-15T18:51:26.230Z,22.80
2018-05-15T18:53:54.680Z,22.70
2018-05-15T18:56:22.941Z,22.60
2018-05-15T18:58:51.294Z,22.60
2018-05-15T19:01:20.383Z,22.50
2018-05-15T19:03:47.951Z,22.50
2018-05-15T19:06:15.524Z,22.40
2018-05-15T19:08:43.833Z,22.20
2018-05-15T19:11:12.477Z,22.20
2018-05-15T19:13:41.056Z,22.10
2018-05-15T19:16:09.372Z,22.00
2018-05-15T19:18:36.869Z,22.00
2018-05-15T19:21:05.204Z,21.90
2018-05-15T19:23:33.515Z,21.80
2018-05-15T19:26:01.061Z,21.80
2018-05-15T19:28:28.561Z,21.80
2018-05-15T19:30:56.930Z,21.60
2018-05-15T19:33:30.104Z,21.60
2018-05-15T19:36:03.913Z,21.40
2018-05-15T19:38:32.205Z,21.30
2018-05-15T19:41:00.527Z,21.30
2018-05-15T19:43:28.832Z,21.20
2018-05-15T19:45:57.121Z,21.10
2018-05-15T19:48:25.417Z,21.10
2018-05-15T19:50:53.704Z,21.10
2018-05-15T19:53:21.233Z,21.00
2018-05-15T19:55:49.538Z,20.90
2018-05-15T19:58:17.038Z,20.90
2018-05-15T20:00:45.354Z,20.80
2018-05-15T20:03:13.670Z,20.70
2018-05-15T20:05:42.302Z,20.60
2018-05-15T20:08:11.412Z,20.50
2018-05-15T20:10:40.431Z,20.50
2018-05-15T20:13:07.992Z,20.50
2018-05-15T20:15:35.520Z,20.40
2018-05-15T20:18:03.045Z,20.40
2018-05-15T20:20:31.296Z,20.30
2018-05-15T20:22:59.601Z,20.30
2018-05-15T20:25:27.114Z,20.30
2018-05-15T20:27:55.066Z,20.20
2018-05-15T20:30:23.361Z,20.10
2018-05-15T20:32:51.189Z,20.10
2018-05-15T20:35:20.301Z,20.00
2018-05-15T20:37:49.067Z,19.90
2018-05-15T20:40:17.340Z,19.90
2018-05-15T20:42:45.629Z,19.80
2018-05-15T20:45:13.917Z,19.70
2018-05-15T20:47:42.545Z,19.70
2018-05-15T20:50:11.141Z,19.70
2018-05-15T20:52:38.670Z,19.60
2018-05-15T20:55:06.157Z,19.60
2018-05-15T20:57:34.413Z,19.50
2018-05-15T21:00:02.711Z,19.50
2018-05-15T21:02:30.297Z,19.50
2018-05-15T21:04:58.568Z,19.40
2018-05-15T21:07:26.855Z,19.40
2018-05-15T21:09:55.466Z,19.30
2018-05-15T21:12:23.366Z,19.30
2018-05-15T21:14:51.249Z,19.30
2018-05-15T21:17:20.305Z,19.20
2018-05-15T21:19:49.073Z,19.20
2018-05-15T21:22:17.345Z,19.10
2018-05-15T21:24:45.938Z,19.10
2018-05-15T21:27:14.491Z,19.00
2018-05-15T21:29:42.748Z,19.00
2018-05-15T21:32:11.856Z,18.90
2018-05-15T21:34:41.109Z,18.90
2018-05-15T21:37:09.401Z,18.80
2018-05-15T21:39:37.719Z,18.80
2018-05-15T21:42:05.977Z,18.80
2018-05-15T21:44:33.522Z,18.80
2018-05-15T21:47:01.039Z,18.80
2018-05-15T21:49:29.338Z,18.70
2018-05-15T21:51:57.610Z,18.70
2018-05-15T21:54:25.170Z,18.70
2018-05-15T21:56:53.454Z,18.70
2018-05-15T21:59:21.718Z,18.80
2018-05-15T22:01:50.023Z,18.80
2018-05-15T22:04:17.637Z,18.80
2018-05-15T22:06:45.158Z,18.80
2018-05-15T22:09:13.436Z,18.80
2018-05-15T22:11:54.313Z,18.80
2018-05-15T22:14:34.290Z,18.80
2018-05-15T22:17:14.508Z,18.80
2018-05-15T22:19:54.501Z,18.80
2018-05-15T22:22:21.546Z,18.80
2018-05-15T22:24:49.826Z,18.90
2018-05-15T22:27:17.390Z,18.90
2018-05-15T22:29:45.658Z,18.90
2018-05-15T22:32:13.190Z,18.90
2018-05-15T22:34:42.580Z,18.70
2018-05-15T22:37:11.463Z,18.60
2018-05-15T22:39:39.758Z,18.60
2018-05-15T22:42:08.038Z,18.70
2018-05-15T22:44:36.324Z,18.70
2018-05-15T22:47:03.821Z,18.70
2018-05-15T22:49:32.120Z,18.60
2018-05-15T22:52:00.387Z,18.70
2018-05-15T22:54:28.689Z,18.70
2018-05-15T22:56:56.188Z,18.70
2018-05-15T22:59:24.572Z,18.70
2018-05-15T23:01:52.074Z,18.60
2018-05-15T23:04:20.721Z,18.70
2018-05-15T23:06:48.256Z,18.70
2018-05-15T23:09:16.543Z,18.70
2018-05-15T23:11:44.041Z,18.70
2018-05-15T23:14:12.489Z,18.60
2018-05-15T23:16:40.747Z,18.50
2018-05-15T23:19:09.062Z,18.40
2018-05-15T23:21:37.383Z,18.50
2018-05-15T23:24:04.897Z,18.40
2018-05-15T23:26:32.388Z,18.50
2018-05-15T23:29:00.680Z,18.40
2018-05-15T23:31:28.957Z,18.30
2018-05-15T23:33:57.249Z,18.40
2018-05-15T23:36:25.544Z,18.30
2018-05-15T23:38:53.040Z,18.30
2018-05-15T23:41:22.249Z,18.20
2018-05-15T23:43:50.514Z,18.20
2018-05-15T23:46:18.041Z,18.20
2018-05-15T23:48:46.301Z,18.10
2018-05-15T23:51:14.592Z,18.10
2018-05-15T23:53:42.097Z,18.10
2018-05-15T23:56:11.402Z,18.10
2018-05-15T23:58:38.921Z,18.10
